Laredo, TX

4:04 AM CST en Enero 31, 2015 (GMT -0600)
Laredo International | Change Station
CLOSE
Current Station
Aeropuerto
Location: Laredo,
Altura: 509 ft
Estaciones meteorológicas cercanas

Alt 509 ft 27.54 °N, 99.46 °W | Updated 8 minutes ago

Nublado
Nublado
58 ° F
Sensación térmica 58 ° F
N
13
Viento Variable Viento desde Este

Hoy
Alta -- | Baja -- ° F
--% Posibilidad de precipitaciones
Ayer
Alta -- | Baja -- ° F
Precip. -- pul
7:24 AM 6:18 PM
Gibosa creciente, 88% visible
Presión 30.06 pul
Visibilidad 8.0 Millas
Nubes Nublado 700 ft
Punto de rocío 57 ° F
Humedad 96%
Precipitaciones 0.00 pul
Espesor de la nieve No disponible.
UV 0 de una escala de 12
Polen 8.40 de una escala de 12
Calidad del aire No disponible.
Flu Activity No disponible.
METAR KLRD 310956Z AUTO 08011KT 8SM OVC007 14/14 A3009 RMK AO2 T01440138 CIG 006V012 RAE11 P0000 SLP180

More Conditions Fewer Conditions

Presión 30.06 pul
Visibilidad 8.0 Millas
Nubes Nublado 700 ft
Punto de rocío 57 ° F
Humedad 96%
Precipitaciones 0.00 pul
Espesor de la nieve No disponible.
UV 0 de una escala de 12
Polen 8.40 de una escala de 12
Calidad del aire No disponible.
Flu Activity No disponible.
METAR KLRD 310956Z AUTO 08011KT 8SM OVC007 14/14 A3009 RMK AO2 T01440138 CIG 006V012 RAE11 P0000 SLP180

More Conditions Fewer Conditions

10-Day Weather Forecast

Almanac

Astronomía

Jan. 31, 2015 Salida Puesta
Hora real
Crepúsculo civil
Crepúsculo náutico
Crepúsculo astronómico
Luna
Horas de luz
Horas de luz
Tomorrow will be .
, % of the Moon is Illuminated

Extremos de hoy

Máximos del estado Bajos del estado

Community

WunderPhotos

Upload Photos

1,792,021 ¡fotos cargadas!

WunderBlogs® & News

Nearby

Calidad del aire

  Calidad del aire Índice AQ Contaminante
Not available.

Grosos de nieve

Estación Profundido Altura

Actividad de terremotos

Ciudad Distance Mag. Tiempo y dato
Magnitud mínima muestra es 2,5.

Temperaturas de aguas costeras

Lugar Temperatura

Estaciones meteorológicas cercanas